CheckWX is a tool to help pilots better visualize weather data.  It is not intended as a substitute for an official pre-flight weather briefing.

11:14:17 UTC

KLOT METAR
Lewis University Airport
Chicago/Romeoville, Illinois, USA
Current

19 mins ago

KLOT 151055Z AUTO 15008KT 10SM CLR 05/03 A2996 RMK AO2 T00500025
Observed
Oct-15 @ 10:55 UTC
Wind
  • 150° at 8 KTS
Visibility
10 SM
Flight Rules
VFR
Cloud Levels
  • Clear skies
Temperature
C / 41°F
Dewpoint
C / 37°F
Humidity
87%
Altimeter
29.96" Hg
Pressure
1014.52 hPa
Previous

39 mins ago

KLOT 151035Z AUTO 15005KT 10SM CLR 05/02 A2997 RMK AO2 T00450022
Observed
Oct-15 @ 10:35 UTC
Wind
  • 150° at 5 KTS
Visibility
10 SM
Flight Rules
VFR
Cloud Levels
  • Clear skies
Temperature
C / 41°F
Dewpoint
C / 36°F
Humidity
81%
Altimeter
29.97" Hg
Pressure
1014.92 hPa
Previous

59 mins ago

KLOT 151015Z AUTO 14006KT 10SM CLR 05/02 A2998 RMK AO2 T00450022
Observed
Oct-15 @ 10:15 UTC
Wind
  • 140° at 6 KTS
Visibility
10 SM
Flight Rules
VFR
Cloud Levels
  • Clear skies
Temperature
C / 41°F
Dewpoint
C / 36°F
Humidity
81%
Altimeter
29.98" Hg
Pressure
1015.22 hPa